Plaza, Washington
Current Conditions -  °F | °C
As of 3:53 AM on Friday 24 Oct 2014 (Local Time) from KGEG Reporting Station
Broken Clouds Broken Clouds  
Wind Chill:   Ceiling: 22000
Heat Index:   Visibility: 10mi
Dew Point:   Wind: 9mph
Humidity: 89%   Direction: 170°S
Pressure: 30.03"   Gusts: NA
Location:  47.2196°N, 117.453°W
Report Text: KGEG 241053Z 17008KT 10SM BKN220 06/04 A3003 RMK AO2 SLP175 T00610044
Loading
Personal Weather Stations






























Interactive Weather Map
Tropical Storm Tracking
New forecast layout! Learn more

10-Day Weather Forecast

Advertisements
Track Severe Weather on mobile